createdAt,value
2023-05-14T00:01:42.325Z,21.27
2023-05-14T00:04:09.536Z,21.23
2023-05-14T00:06:36.689Z,24.60
2023-05-14T00:09:04.270Z,22.65
2023-05-14T00:11:31.323Z,21.92
2023-05-14T00:13:58.436Z,21.83
2023-05-14T00:16:25.711Z,20.40
2023-05-14T00:18:53.021Z,22.08
2023-05-14T00:21:20.206Z,20.25
2023-05-14T00:23:47.532Z,24.17
2023-05-14T00:26:14.653Z,21.15
2023-05-14T00:28:44.498Z,22.52
2023-05-14T00:31:11.563Z,21.45
2023-05-14T00:33:38.794Z,22.25
2023-05-14T00:36:06.102Z,21.65
2023-05-14T00:38:33.217Z,21.40
2023-05-14T00:41:00.308Z,21.77
2023-05-14T00:43:27.461Z,21.30
2023-05-14T00:45:55.807Z,19.65
2023-05-14T00:48:23.540Z,21.35
2023-05-14T00:50:51.326Z,22.45
2023-05-14T00:53:21.644Z,20.10
2023-05-14T00:55:49.933Z,21.73
2023-05-14T00:58:18.439Z,20.27
2023-05-14T01:00:45.936Z,23.90
2023-05-14T01:03:13.086Z,23.90
2023-05-14T01:05:44.377Z,19.98
2023-05-14T01:08:28.500Z,21.52
2023-05-14T01:10:59.393Z,23.15
2023-05-14T01:13:26.428Z,23.52
2023-05-14T01:15:54.295Z,20.33
2023-05-14T01:18:22.201Z,19.73
2023-05-14T01:20:52.558Z,24.25
2023-05-14T01:23:19.663Z,23.70
2023-05-14T01:25:46.779Z,21.88
2023-05-14T01:28:18.023Z,25.05
2023-05-14T01:30:58.655Z,21.90
2023-05-14T01:33:28.281Z,21.52
2023-05-14T01:35:55.954Z,19.90
2023-05-14T01:38:24.153Z,20.77
2023-05-14T01:40:51.598Z,22.30
2023-05-14T01:43:19.698Z,19.88
2023-05-14T01:45:47.134Z,20.27
2023-05-14T01:48:14.282Z,20.30
2023-05-14T01:50:41.405Z,23.40
2023-05-14T01:53:08.471Z,19.08
2023-05-14T01:55:35.617Z,23.25
2023-05-14T01:58:02.745Z,18.73
2023-05-14T02:00:29.872Z,19.45
2023-05-14T02:02:58.102Z,21.02
2023-05-14T02:05:25.323Z,20.23
2023-05-14T02:07:54.614Z,20.75
2023-05-14T02:10:22.088Z,26.75
2023-05-14T02:12:50.180Z,22.08
2023-05-14T02:15:17.333Z,21.40
2023-05-14T02:17:44.476Z,23.17
2023-05-14T02:20:11.876Z,23.02
2023-05-14T02:22:42.023Z,20.77
2023-05-14T02:25:09.511Z,22.70
2023-05-14T02:27:36.659Z,23.08
2023-05-14T02:30:04.531Z,22.80
2023-05-14T02:32:31.720Z,24.05
2023-05-14T02:34:59.083Z,20.77
2023-05-14T02:37:26.207Z,22.52
2023-05-14T02:39:53.422Z,25.98
2023-05-14T02:42:23.060Z,21.27
2023-05-14T02:44:52.206Z,22.35
2023-05-14T02:47:19.520Z,22.40
2023-05-14T02:49:46.699Z,23.77
2023-05-14T02:52:13.858Z,20.95
2023-05-14T02:54:40.948Z,20.65
2023-05-14T02:57:07.992Z,19.45
2023-05-14T02:59:36.126Z,22.50
2023-05-14T03:02:03.748Z,21.92
2023-05-14T03:04:31.207Z,19.50
2023-05-14T03:06:58.335Z,21.92
2023-05-14T03:09:25.476Z,20.33
2023-05-14T03:11:52.586Z,23.13
2023-05-14T03:14:19.654Z,20.52
2023-05-14T03:16:46.837Z,23.58
2023-05-14T03:19:14.087Z,22.17
2023-05-14T03:21:41.204Z,23.88
2023-05-14T03:24:08.323Z,22.75
2023-05-14T03:26:35.429Z,25.52
2023-05-14T03:29:03.887Z,22.10
2023-05-14T03:31:31.475Z,24.98
2023-05-14T03:33:58.598Z,21.30
2023-05-14T03:36:25.702Z,21.77
2023-05-14T03:38:53.220Z,24.80
2023-05-14T03:41:21.789Z,23.40
2023-05-14T03:43:48.898Z,23.65
2023-05-14T03:46:16.095Z,22.63
2023-05-14T03:48:43.429Z,23.88
2023-05-14T03:51:10.614Z,25.85
2023-05-14T03:53:37.777Z,21.98
2023-05-14T03:56:05.062Z,21.80
2023-05-14T03:58:32.226Z,22.27
2023-05-14T04:01:00.666Z,22.10
2023-05-14T04:03:28.033Z,21.95
2023-05-14T04:05:55.648Z,23.05
2023-05-14T04:08:22.780Z,20.83
2023-05-14T04:10:50.487Z,20.77
2023-05-14T04:13:17.712Z,19.80
2023-05-14T04:15:45.574Z,20.10
2023-05-14T04:18:14.096Z,21.98
2023-05-14T04:20:41.290Z,19.70
2023-05-14T04:23:08.404Z,21.85
2023-05-14T04:25:35.559Z,27.58
2023-05-14T04:28:02.646Z,22.55
2023-05-14T04:30:29.846Z,21.52
2023-05-14T04:32:56.931Z,21.92
2023-05-14T04:35:25.116Z,18.90
2023-05-14T04:37:52.485Z,20.95
2023-05-14T04:40:19.838Z,22.40
2023-05-14T04:42:46.942Z,17.55
2023-05-14T04:45:14.517Z,18.50
2023-05-14T04:47:42.200Z,20.50
2023-05-14T04:50:09.937Z,22.63
2023-05-14T04:52:37.025Z,21.67
2023-05-14T04:55:04.243Z,18.98
2023-05-14T04:57:31.351Z,20.55
2023-05-14T04:59:58.465Z,19.30
2023-05-14T05:02:25.824Z,18.50
2023-05-14T05:04:52.916Z,19.10
2023-05-14T05:07:20.026Z,17.42
2023-05-14T05:09:47.119Z,17.88
2023-05-14T05:12:14.239Z,16.55
2023-05-14T05:14:41.313Z,18.10
2023-05-14T05:17:08.387Z,18.08
2023-05-14T05:19:43.160Z,16.02
2023-05-14T05:22:11.561Z,19.73
2023-05-14T05:24:38.640Z,17.50
2023-05-14T05:27:06.050Z,22.80
2023-05-14T05:29:33.171Z,19.42
2023-05-14T05:32:00.485Z,18.42
2023-05-14T05:34:27.790Z,19.70
2023-05-14T05:36:54.837Z,18.02
2023-05-14T05:39:21.929Z,19.80
2023-05-14T05:41:49.055Z,17.67
2023-05-14T05:44:16.179Z,18.33
2023-05-14T05:46:43.301Z,18.98
2023-05-14T05:49:10.403Z,22.33
2023-05-14T05:51:37.444Z,18.52
2023-05-14T05:54:04.580Z,18.92
2023-05-14T05:56:31.769Z,16.52
2023-05-14T05:58:58.926Z,19.13
2023-05-14T06:01:26.674Z,20.65
2023-05-14T06:03:53.877Z,18.40
2023-05-14T06:06:21.719Z,20.52
2023-05-14T06:08:49.072Z,18.88
2023-05-14T06:11:16.914Z,16.38
2023-05-14T06:13:44.070Z,20.00
2023-05-14T06:16:11.228Z,16.38
2023-05-14T06:18:38.414Z,15.45
2023-05-14T06:21:05.552Z,18.15
2023-05-14T06:23:34.157Z,16.38
2023-05-14T06:26:01.259Z,17.90
2023-05-14T06:28:28.444Z,16.95
2023-05-14T06:30:55.819Z,16.23
2023-05-14T06:33:29.761Z,16.75
2023-05-14T06:35:57.653Z,19.80
2023-05-14T06:38:25.049Z,19.60
2023-05-14T06:40:53.165Z,26.08
2023-05-14T06:43:20.745Z,18.33
2023-05-14T06:45:51.697Z,15.50
2023-05-14T06:48:19.318Z,15.52
2023-05-14T06:50:47.188Z,16.17
2023-05-14T06:53:14.476Z,14.20
2023-05-14T06:55:41.776Z,14.30
2023-05-14T06:58:09.346Z,17.98
2023-05-14T07:00:36.423Z,16.27
2023-05-14T07:03:03.594Z,15.15
2023-05-14T07:05:30.931Z,14.40
2023-05-14T07:07:58.143Z,18.70
2023-05-14T07:10:25.471Z,20.85
2023-05-14T07:12:52.811Z,15.77
2023-05-14T07:15:19.916Z,17.33
2023-05-14T07:17:47.029Z,15.07
2023-05-14T07:20:14.161Z,17.92
2023-05-14T07:22:41.310Z,17.42
2023-05-14T07:25:08.566Z,16.73
2023-05-14T07:27:35.651Z,15.73
2023-05-14T07:30:02.785Z,16.95
2023-05-14T07:32:29.908Z,18.63
2023-05-14T07:34:57.047Z,29.50
2023-05-14T07:37:25.876Z,18.75
2023-05-14T07:39:53.726Z,21.85
2023-05-14T07:42:34.604Z,21.02
2023-05-14T07:45:03.861Z,19.85
2023-05-14T07:47:31.147Z,18.02
2023-05-14T07:49:58.383Z,20.13
2023-05-14T07:52:25.763Z,18.45
2023-05-14T07:54:53.034Z,17.25
2023-05-14T07:57:20.667Z,17.30
2023-05-14T07:59:48.585Z,18.20
2023-05-14T08:02:16.588Z,16.58
2023-05-14T08:04:44.060Z,21.25
2023-05-14T08:07:11.394Z,20.73
2023-05-14T08:09:38.489Z,16.42
2023-05-14T08:12:06.012Z,18.67
2023-05-14T08:14:33.148Z,20.48
2023-05-14T08:17:00.288Z,19.88
2023-05-14T08:19:27.825Z,16.95
2023-05-14T08:21:55.097Z,16.02
2023-05-14T08:24:22.301Z,17.48
2023-05-14T08:26:49.410Z,16.85
2023-05-14T08:29:16.929Z,16.00
2023-05-14T08:31:44.207Z,15.40
2023-05-14T08:34:11.375Z,16.60
2023-05-14T08:36:39.185Z,16.45
2023-05-14T08:39:07.768Z,15.50
2023-05-14T08:41:35.265Z,14.75
2023-05-14T08:44:02.433Z,16.15
2023-05-14T08:46:31.077Z,13.15
2023-05-14T08:49:02.566Z,16.00
2023-05-14T08:51:29.791Z,20.25
2023-05-14T08:53:59.784Z,15.00
2023-05-14T08:56:27.353Z,15.38
2023-05-14T08:58:54.529Z,17.60
2023-05-14T09:01:22.081Z,15.90
2023-05-14T09:03:49.781Z,14.82
2023-05-14T09:06:17.612Z,15.15
2023-05-14T09:08:44.768Z,15.20
2023-05-14T09:11:11.953Z,13.93
2023-05-14T09:13:39.454Z,16.77
2023-05-14T09:16:06.787Z,14.80
2023-05-14T09:18:35.999Z,15.93
2023-05-14T09:21:03.257Z,15.23
2023-05-14T09:23:34.267Z,15.68
2023-05-14T09:26:04.878Z,15.15
2023-05-14T09:28:32.053Z,17.58
2023-05-14T09:30:59.157Z,13.75
2023-05-14T09:33:29.903Z,15.75
2023-05-14T09:36:00.778Z,13.48
2023-05-14T09:38:31.287Z,18.17
2023-05-14T09:41:01.594Z,13.32
2023-05-14T09:43:28.684Z,13.48
2023-05-14T09:45:55.931Z,15.82
2023-05-14T09:48:23.146Z,11.52
2023-05-14T09:50:51.559Z,14.73
2023-05-14T09:53:19.167Z,13.77
2023-05-14T09:55:46.479Z,14.07
2023-05-14T09:58:14.534Z,14.27
2023-05-14T10:00:45.169Z,15.18
2023-05-14T10:03:14.930Z,15.55
2023-05-14T10:05:42.980Z,11.95
2023-05-14T10:08:14.328Z,15.18
2023-05-14T10:10:41.452Z,16.02
2023-05-14T10:13:17.171Z,14.13
2023-05-14T10:15:49.389Z,11.02
2023-05-14T10:18:24.111Z,16.77
2023-05-14T10:21:04.442Z,14.15
2023-05-14T10:23:31.833Z,13.95
2023-05-14T10:25:59.288Z,13.38
2023-05-14T10:28:26.793Z,13.40
2023-05-14T10:30:54.821Z,13.82
2023-05-14T10:33:22.003Z,16.73
2023-05-14T10:35:52.334Z,14.18
2023-05-14T10:38:23.184Z,14.73
2023-05-14T10:40:53.544Z,16.42
2023-05-14T10:43:22.004Z,12.77
2023-05-14T10:45:49.232Z,15.05
2023-05-14T10:48:16.500Z,15.80
2023-05-14T10:50:44.016Z,16.10
2023-05-14T10:53:12.129Z,13.13
2023-05-14T10:55:39.414Z,12.00
2023-05-14T10:58:06.709Z,15.15
2023-05-14T11:00:34.396Z,12.50
2023-05-14T11:03:04.490Z,12.43
2023-05-14T11:05:31.851Z,13.77
2023-05-14T11:07:59.352Z,14.00
2023-05-14T11:10:30.094Z,17.20
2023-05-14T11:12:58.087Z,12.75
2023-05-14T11:15:26.201Z,16.83
2023-05-14T11:17:53.705Z,12.35
2023-05-14T11:20:21.751Z,12.50
2023-05-14T11:22:51.530Z,14.93
2023-05-14T11:25:18.908Z,12.05
2023-05-14T11:27:46.982Z,13.27
2023-05-14T11:30:14.243Z,14.82
2023-05-14T11:32:41.886Z,13.85
2023-05-14T11:35:09.251Z,11.80
2023-05-14T11:37:36.400Z,16.27
2023-05-14T11:40:08.969Z,15.90
2023-05-14T11:42:36.885Z,13.00
2023-05-14T11:45:04.223Z,14.93
2023-05-14T11:47:31.795Z,14.15
2023-05-14T11:50:00.716Z,14.13
2023-05-14T11:52:27.882Z,21.05
2023-05-14T11:54:55.128Z,11.80
2023-05-14T11:57:22.625Z,13.88
2023-05-14T11:59:50.371Z,12.15
2023-05-14T12:02:19.018Z,12.98
2023-05-14T12:04:51.598Z,13.77
2023-05-14T12:10:01.054Z,12.60
2023-05-14T12:12:28.129Z,15.63
2023-05-14T12:14:55.192Z,14.65
2023-05-14T12:17:23.505Z,13.07
2023-05-14T12:19:51.985Z,15.85
2023-05-14T12:22:20.911Z,15.75
2023-05-14T12:24:54.724Z,14.52
2023-05-14T12:27:28.666Z,15.65
2023-05-14T12:32:36.022Z,13.15
2023-05-14T12:35:03.461Z,14.00
2023-05-14T12:37:31.269Z,12.93
2023-05-14T12:39:58.519Z,17.58
2023-05-14T12:42:26.858Z,11.10
2023-05-14T12:44:53.940Z,16.55
2023-05-14T12:47:21.278Z,12.27
2023-05-14T12:49:48.440Z,16.40
2023-05-14T12:54:46.031Z,19.27
2023-05-14T12:57:13.270Z,13.48
2023-05-14T12:59:41.520Z,12.98
2023-05-14T13:02:08.924Z,12.82
2023-05-14T13:04:37.196Z,12.35
2023-05-14T13:07:04.371Z,15.80
2023-05-14T13:09:31.478Z,15.57
2023-05-14T13:11:58.807Z,15.95
2023-05-14T13:14:26.022Z,16.30
2023-05-14T13:16:53.167Z,12.80
2023-05-14T13:19:20.342Z,12.77
2023-05-14T13:21:47.380Z,16.10
2023-05-14T13:24:15.156Z,15.68
2023-05-14T13:26:44.429Z,16.13
2023-05-14T13:29:11.611Z,11.05
2023-05-14T13:31:38.670Z,12.63
2023-05-14T13:34:05.865Z,20.48
2023-05-14T13:36:32.997Z,10.43
2023-05-14T13:39:00.110Z,13.57
2023-05-14T13:41:27.217Z,13.13
2023-05-14T13:43:54.261Z,14.65
2023-05-14T13:46:21.429Z,13.63
2023-05-14T13:48:48.575Z,11.80
2023-05-14T13:51:15.688Z,13.77
2023-05-14T13:53:42.739Z,13.80
2023-05-14T13:56:09.891Z,12.70
2023-05-14T13:58:36.992Z,14.95
2023-05-14T14:01:04.157Z,14.85
2023-05-14T14:03:31.301Z,13.85
2023-05-14T14:05:58.359Z,9.93
2023-05-14T14:08:25.547Z,12.05
2023-05-14T14:10:55.072Z,14.25
2023-05-14T14:13:22.707Z,11.48
2023-05-14T14:15:50.217Z,9.60
2023-05-14T14:18:17.433Z,10.20
2023-05-14T14:20:44.557Z,11.23
2023-05-14T14:23:11.684Z,11.65
2023-05-14T14:25:38.845Z,11.90
2023-05-14T14:28:06.009Z,12.13
2023-05-14T14:30:33.141Z,13.48
2023-05-14T14:33:01.320Z,9.93
2023-05-14T14:35:28.677Z,12.52
2023-05-14T14:37:55.846Z,11.15
2023-05-14T14:40:23.879Z,11.50
2023-05-14T14:42:51.134Z,14.00
2023-05-14T14:45:18.528Z,14.10
2023-05-14T14:47:46.369Z,12.82
2023-05-14T14:50:13.716Z,12.10
2023-05-14T14:52:45.449Z,13.15
2023-05-14T14:55:13.232Z,13.50
2023-05-14T14:57:40.342Z,14.38
2023-05-14T15:00:07.772Z,11.55
2023-05-14T15:02:35.383Z,13.85
2023-05-14T15:05:02.616Z,11.55
2023-05-14T15:07:32.811Z,11.57
2023-05-14T15:10:00.348Z,13.40
2023-05-14T15:12:27.507Z,12.98
2023-05-14T15:14:54.675Z,11.15
2023-05-14T15:17:21.729Z,10.48
2023-05-14T15:19:48.866Z,15.20
2023-05-14T15:22:15.993Z,14.15
2023-05-14T15:24:43.129Z,13.20
2023-05-14T15:27:10.274Z,10.13
2023-05-14T15:29:37.395Z,13.77
2023-05-14T15:32:04.682Z,14.35
2023-05-14T15:34:31.855Z,13.70
2023-05-14T15:36:58.953Z,15.95
2023-05-14T15:39:26.302Z,11.15
2023-05-14T15:41:54.018Z,13.63
2023-05-14T15:44:21.095Z,12.25
2023-05-14T15:46:48.248Z,16.27
2023-05-14T15:49:15.432Z,13.77
2023-05-14T15:51:42.504Z,12.77
2023-05-14T15:54:09.553Z,11.10
2023-05-14T15:56:36.701Z,12.57
2023-05-14T15:59:03.833Z,12.35
2023-05-14T16:01:31.014Z,12.50
2023-05-14T16:03:58.185Z,13.02
2023-05-14T16:06:25.752Z,13.43
2023-05-14T16:08:52.835Z,12.48
2023-05-14T16:11:19.989Z,14.38
2023-05-14T16:13:47.116Z,12.70
2023-05-14T16:16:14.288Z,12.13
2023-05-14T16:18:42.666Z,11.90
2023-05-14T16:21:09.745Z,11.05
2023-05-14T16:23:36.880Z,16.17
2023-05-14T16:26:04.041Z,12.43
2023-05-14T16:28:31.175Z,12.63
2023-05-14T16:30:58.295Z,13.18
2023-05-14T16:33:25.465Z,11.20
2023-05-14T16:35:52.614Z,12.63
2023-05-14T16:38:19.693Z,14.45
2023-05-14T16:40:46.775Z,13.90
2023-05-14T16:43:13.836Z,14.55
2023-05-14T16:45:41.510Z,13.80
2023-05-14T16:48:08.718Z,11.63
2023-05-14T16:50:35.908Z,13.05
2023-05-14T16:53:03.053Z,12.90
2023-05-14T16:55:30.324Z,14.35
2023-05-14T16:57:57.449Z,15.82
2023-05-14T17:00:24.577Z,13.15
2023-05-14T17:02:54.004Z,14.20
2023-05-14T17:05:21.744Z,14.70
2023-05-14T17:07:49.071Z,13.05
2023-05-14T17:10:16.224Z,15.20
2023-05-14T17:12:43.477Z,15.15
2023-05-14T17:15:10.784Z,16.10
2023-05-14T17:17:38.140Z,14.05
2023-05-14T17:22:33.055Z,16.13
2023-05-14T17:25:00.509Z,13.70
2023-05-14T17:27:29.215Z,15.65
2023-05-14T17:29:56.328Z,14.07
2023-05-14T17:32:23.511Z,14.75
2023-05-14T17:34:50.714Z,14.88
2023-05-14T17:37:17.988Z,16.00
2023-05-14T17:39:45.147Z,17.00
2023-05-14T17:42:12.381Z,16.58
2023-05-14T17:44:39.508Z,13.77
2023-05-14T17:47:07.988Z,16.00
2023-05-14T17:49:35.545Z,15.50
2023-05-14T17:52:03.051Z,17.42
2023-05-14T17:54:30.704Z,14.88
2023-05-14T17:56:57.895Z,17.92
2023-05-14T17:59:25.004Z,15.18
2023-05-14T18:01:52.217Z,13.90
2023-05-14T18:04:19.875Z,16.58
2023-05-14T18:06:47.057Z,15.02
2023-05-14T18:09:14.417Z,16.90
2023-05-14T18:11:41.543Z,17.35
2023-05-14T18:14:08.702Z,14.68
2023-05-14T18:16:37.073Z,13.05
2023-05-14T18:19:04.234Z,15.05
2023-05-14T18:21:31.530Z,14.23
2023-05-14T18:23:58.671Z,17.95
2023-05-14T18:26:26.615Z,15.68
2023-05-14T18:28:53.704Z,15.57
2023-05-14T18:31:20.847Z,13.82
2023-05-14T18:33:48.003Z,15.40
2023-05-14T18:36:15.110Z,13.40
2023-05-14T18:38:42.211Z,16.38
2023-05-14T18:41:09.356Z,13.90
2023-05-14T18:43:36.505Z,13.75
2023-05-14T18:46:03.681Z,12.52
2023-05-14T18:48:31.623Z,13.20
2023-05-14T18:50:58.692Z,13.43
2023-05-14T18:53:26.080Z,13.90
2023-05-14T18:55:53.253Z,16.15
2023-05-14T18:58:20.432Z,16.25
2023-05-14T19:00:47.631Z,16.70
2023-05-14T19:03:15.126Z,17.25
2023-05-14T19:05:42.352Z,15.50
2023-05-14T19:08:09.502Z,17.85
2023-05-14T19:10:36.643Z,17.20
2023-05-14T19:13:03.783Z,15.48
2023-05-14T19:15:30.999Z,18.45
2023-05-14T19:17:58.098Z,17.20
2023-05-14T19:20:25.477Z,17.05
2023-05-14T19:22:52.638Z,17.73
2023-05-14T19:25:19.707Z,15.02
2023-05-14T19:27:50.916Z,14.25
2023-05-14T19:30:18.351Z,17.40
2023-05-14T19:32:45.592Z,16.38
2023-05-14T19:35:12.891Z,14.85
2023-05-14T19:37:39.942Z,16.38
2023-05-14T19:40:07.443Z,14.93
2023-05-14T19:42:34.556Z,17.25
2023-05-14T19:45:01.649Z,14.63
2023-05-14T19:47:28.859Z,15.20
2023-05-14T19:49:56.001Z,13.13
2023-05-14T19:52:23.089Z,13.90
2023-05-14T19:54:50.236Z,16.88
2023-05-14T19:57:17.313Z,13.20
2023-05-14T19:59:44.471Z,16.92
2023-05-14T20:02:18.171Z,17.48
2023-05-14T20:04:46.166Z,12.75
2023-05-14T20:07:17.176Z,13.73
2023-05-14T20:09:44.297Z,14.93
2023-05-14T20:12:12.860Z,15.52
2023-05-14T20:14:40.945Z,15.50
2023-05-14T20:17:08.265Z,17.85
2023-05-14T20:19:35.606Z,15.77
2023-05-14T20:22:02.828Z,15.25
2023-05-14T20:24:29.946Z,14.20
2023-05-14T20:26:57.918Z,17.13
2023-05-14T20:29:25.011Z,17.80
2023-05-14T20:31:52.282Z,16.92
2023-05-14T20:34:19.414Z,13.70
2023-05-14T20:36:46.460Z,16.52
2023-05-14T20:39:14.572Z,13.48
2023-05-14T20:41:41.730Z,14.00
2023-05-14T20:44:08.793Z,15.57
2023-05-14T20:46:35.919Z,16.60
2023-05-14T20:49:03.073Z,15.32
2023-05-14T20:51:30.373Z,14.13
2023-05-14T20:53:57.501Z,11.73
2023-05-14T20:56:24.642Z,12.30
2023-05-14T20:58:51.783Z,14.43
2023-05-14T21:01:19.347Z,14.60
2023-05-14T21:03:46.692Z,15.88
2023-05-14T21:06:13.906Z,12.48
2023-05-14T21:08:41.044Z,13.15
2023-05-14T21:11:08.892Z,16.08
2023-05-14T21:13:36.006Z,16.67
2023-05-14T21:16:03.222Z,12.32
2023-05-14T21:18:32.662Z,13.32
2023-05-14T21:20:59.869Z,15.00
2023-05-14T21:23:26.945Z,15.48
2023-05-14T21:25:54.810Z,13.00
2023-05-14T21:28:22.217Z,16.63
2023-05-14T21:30:50.550Z,14.48
2023-05-14T21:33:17.632Z,18.02
2023-05-14T21:35:44.713Z,15.00
2023-05-14T21:38:11.974Z,15.07
2023-05-14T21:40:39.128Z,15.95
2023-05-14T21:43:06.184Z,17.08
2023-05-14T21:45:33.381Z,15.38
2023-05-14T21:48:00.683Z,17.38
2023-05-14T21:50:27.924Z,15.80
2023-05-14T21:52:55.193Z,17.05
2023-05-14T21:55:22.818Z,15.05
2023-05-14T21:57:50.824Z,17.02
2023-05-14T22:00:23.476Z,16.70
2023-05-14T22:05:18.065Z,16.23
2023-05-14T22:07:45.314Z,19.15
2023-05-14T22:10:15.951Z,16.98
2023-05-14T22:12:43.712Z,16.52
2023-05-14T22:15:11.491Z,18.50
2023-05-14T22:17:38.867Z,18.63
2023-05-14T22:20:06.903Z,16.73
2023-05-14T22:22:34.246Z,18.02
2023-05-14T22:25:01.349Z,17.23
2023-05-14T22:27:28.532Z,17.40
2023-05-14T22:29:55.620Z,19.40
2023-05-14T22:32:22.988Z,18.17
2023-05-14T22:34:50.282Z,17.88
2023-05-14T22:37:17.485Z,19.42
2023-05-14T22:39:44.822Z,20.27
2023-05-14T22:42:11.932Z,17.70
2023-05-14T22:44:39.016Z,18.80
2023-05-14T22:47:06.191Z,19.35
2023-05-14T22:49:33.309Z,17.23
2023-05-14T22:52:00.462Z,16.40
2023-05-14T22:54:27.563Z,17.80
2023-05-14T22:56:54.762Z,19.70
2023-05-14T22:59:23.604Z,17.50
2023-05-14T23:01:51.211Z,18.08
2023-05-14T23:04:18.449Z,19.75
2023-05-14T23:06:45.647Z,16.33
2023-05-14T23:09:12.738Z,19.05
2023-05-14T23:11:39.858Z,17.67
2023-05-14T23:14:06.917Z,17.75
2023-05-14T23:16:34.062Z,19.17
2023-05-14T23:19:01.360Z,19.05
2023-05-14T23:21:28.544Z,22.20
2023-05-14T23:23:55.609Z,17.90
2023-05-14T23:26:22.739Z,19.48
2023-05-14T23:28:51.052Z,19.05
2023-05-14T23:31:18.186Z,17.92
2023-05-14T23:33:46.259Z,20.73
2023-05-14T23:36:13.433Z,20.63
2023-05-14T23:38:40.749Z,22.42
2023-05-14T23:41:07.865Z,22.77
2023-05-14T23:43:35.011Z,22.60
2023-05-14T23:46:02.617Z,21.63
2023-05-14T23:48:29.870Z,23.38
2023-05-14T23:50:57.002Z,26.10
2023-05-14T23:53:24.134Z,20.15
2023-05-14T23:55:51.369Z,25.42
2023-05-14T23:58:18.434Z,23.02
